Time;durP1;ratioP1;P1;durP2;ratioP2;P2;SDS_P1;SDS_P2;PMS_P1;PMS_P2;Temp;Humidity;BMP_temperature;BMP_pressure;BME280_temperature;BME280_humidity;BME280_pressure;Samples;Min_cycle;Max_cycle;Signal;HPM_P1;HPM_P2
2023/01/22 06:00:28;;;;;;;15.10;13.60;;;2.80;97.20;;;;;;1707815;29;20179;-68
2023/01/22 06:01:18;;;;;;;15.90;14.30;;;2.80;97.20;;;;;;1708193;29;20202;-69
2023/01/22 06:02:10;;;;;;;16.40;14.73;;;2.80;97.20;;;;;;1708324;29;20198;-68
2023/01/22 06:03:01;;;;;;;14.63;13.18;;;2.80;97.20;;;;;;1708232;29;20214;-69
2023/01/22 06:03:53;;;;;;;15.70;14.10;;;2.80;97.20;;;;;;1708259;29;20202;-69
2023/01/22 06:04:44;;;;;;;16.45;14.85;;;2.80;97.20;;;;;;1708016;29;20442;-68
2023/01/22 06:05:36;;;;;;;15.93;13.50;;;2.80;97.20;;;;;;1707859;29;20210;-69
2023/01/22 06:06:27;;;;;;;14.23;12.93;;;2.80;97.20;;;;;;1707753;29;20214;-69
2023/01/22 06:07:18;;;;;;;15.80;14.20;;;2.80;97.20;;;;;;1707787;29;20195;-69
2023/01/22 06:08:10;;;;;;;15.80;14.20;;;2.90;97.20;;;;;;1708201;28;20599;-69
2023/01/22 06:09:01;;;;;;;14.13;12.80;;;2.80;97.20;;;;;;1707909;28;20265;-69
2023/01/22 06:09:52;;;;;;;15.10;13.50;;;2.80;97.20;;;;;;1708224;28;20234;-68
2023/01/22 06:10:44;;;;;;;17.17;15.43;;;2.80;97.20;;;;;;1707986;28;20221;-69
2023/01/22 06:11:35;;;;;;;15.25;13.75;;;2.90;97.20;;;;;;1707954;28;20218;-68
2023/01/22 06:12:26;;;;;;;15.20;13.13;;;2.90;97.20;;;;;;1707832;28;20202;-68
2023/01/22 06:13:17;;;;;;;16.77;15.05;;;2.90;97.20;;;;;;1707807;28;20402;-69
2023/01/22 06:14:09;;;;;;;14.93;13.53;;;2.90;97.20;;;;;;1708242;28;20218;-69
2023/01/22 06:15:00;;;;;;;14.52;13.23;;;2.90;97.20;;;;;;1708102;28;20238;-69
2023/01/22 06:15:53;;;;;;;14.67;13.17;;;2.90;97.20;;;;;;1708153;28;20201;-68
2023/01/22 06:16:43;;;;;;;15.95;14.35;;;2.90;97.20;;;;;;1708121;28;20206;-68
2023/01/22 06:17:35;;;;;;;16.00;14.37;;;2.90;97.20;;;;;;1707950;28;20297;-68
2023/01/22 06:18:26;;;;;;;15.13;13.55;;;2.90;97.20;;;;;;1707744;28;20211;-69
2023/01/22 06:19:18;;;;;;;15.25;13.65;;;2.90;97.20;;;;;;1707495;28;20677;-68
2023/01/22 06:20:10;;;;;;;16.45;14.75;;;2.90;97.20;;;;;;1708048;28;20234;-69
2023/01/22 06:21:03;;;;;;;17.48;15.68;;;2.90;97.20;;;;;;1708098;28;20229;-68
2023/01/22 06:21:54;;;;;;;15.40;13.80;;;2.90;97.20;;;;;;1708191;28;20206;-68
2023/01/22 06:22:50;;;;;;;17.83;14.30;;;2.90;97.20;;;;;;1708150;28;20206;-69
2023/01/22 06:23:40;;;;;;;15.45;13.88;;;2.90;97.20;;;;;;1701582;29;20219;-69
2023/01/22 06:24:32;;;;;;;15.70;14.10;;;2.90;97.20;;;;;;1701193;29;20202;-68
2023/01/22 06:25:23;;;;;;;15.60;14.10;;;2.90;97.20;;;;;;1706226;29;20695;-69
2023/01/22 06:26:14;;;;;;;16.73;15.00;;;2.90;97.20;;;;;;1707752;28;20624;-68
2023/01/22 06:27:05;;;;;;;16.02;14.32;;;2.90;97.20;;;;;;1708096;28;20249;-69
2023/01/22 06:27:57;;;;;;;16.40;14.70;;;2.90;97.20;;;;;;1708086;28;20647;-68
2023/01/22 06:28:47;;;;;;;15.40;13.80;;;2.90;97.20;;;;;;1708062;28;20202;-69
2023/01/22 06:29:39;;;;;;;15.53;14.03;;;2.90;97.20;;;;;;1707838;28;20206;-68
2023/01/22 06:30:30;;;;;;;15.30;13.80;;;2.90;97.20;;;;;;1707657;28;20214;-68
2023/01/22 06:31:23;;;;;;;15.30;13.70;;;2.90;97.20;;;;;;1707457;28;20206;-69
2023/01/22 06:32:14;;;;;;;16.70;15.00;;;2.90;97.20;;;;;;1701076;29;20207;-69
2023/01/22 06:33:05;;;;;;;16.00;14.40;;;2.90;97.20;;;;;;1701362;29;20203;-69
2023/01/22 06:33:56;;;;;;;18.60;13.85;;;2.90;97.20;;;;;;1701453;29;20203;-69
2023/01/22 06:34:48;;;;;;;16.10;14.50;;;2.90;97.20;;;;;;1701450;29;20211;-68
2023/01/22 06:35:38;;;;;;;14.75;13.25;;;2.90;97.20;;;;;;1701440;29;20447;-69
2023/01/22 06:36:30;;;;;;;17.97;15.40;;;2.90;97.20;;;;;;1701473;29;20213;-69
2023/01/22 06:37:21;;;;;;;16.15;14.45;;;2.90;97.20;;;;;;1700749;29;20234;-69
2023/01/22 06:38:13;;;;;;;17.02;15.23;;;2.90;97.20;;;;;;1700872;29;20227;-69
2023/01/22 06:39:04;;;;;;;16.45;14.75;;;2.90;97.20;;;;;;1700799;29;20238;-69
2023/01/22 06:39:55;;;;;;;16.47;14.77;;;2.90;97.20;;;;;;1701362;29;20233;-68
2023/01/22 06:40:50;;;;;;;16.20;14.00;;;2.90;97.20;;;;;;1701310;29;20242;-69
2023/01/22 06:41:42;;;;;;;15.70;14.18;;;2.90;97.20;;;;;;1701296;29;20211;-68
2023/01/22 06:42:35;;;;;;;16.05;14.30;;;2.90;97.20;;;;;;1701476;29;20211;-68
2023/01/22 06:43:28;;;;;;;15.70;14.10;;;2.90;97.20;;;;;;1701136;29;20209;-69
2023/01/22 06:44:18;;;;;;;15.93;13.98;;;2.90;97.20;;;;;;1700959;29;20207;-69
2023/01/22 06:45:11;;;;;;;15.77;14.20;;;3.00;97.20;;;;;;1701628;29;20199;-69
2023/01/22 06:46:02;;;;;;;17.25;15.55;;;3.00;97.20;;;;;;1707905;28;20217;-70
2023/01/22 06:46:55;;;;;;;15.32;13.82;;;3.00;97.20;;;;;;1707908;28;20338;-68
2023/01/22 06:47:46;;;;;;;15.70;14.00;;;2.90;97.20;;;;;;1707963;28;20620;-69
2023/01/22 06:48:38;;;;;;;16.30;14.30;;;2.90;97.20;;;;;;1707922;28;20236;-68
2023/01/22 06:49:28;;;;;;;16.10;14.60;;;2.90;97.20;;;;;;1707629;28;20206;-68
2023/01/22 06:50:20;;;;;;;15.10;13.50;;;2.90;97.20;;;;;;1707413;28;20194;-69
2023/01/22 06:51:11;;;;;;;16.67;14.95;;;2.90;97.20;;;;;;1707630;28;20214;-69
2023/01/22 06:52:06;;;;;;;14.35;12.95;;;2.90;97.20;;;;;;1707714;28;20213;-68
2023/01/22 06:52:58;;;;;;;15.02;13.52;;;2.90;97.20;;;;;;1707965;28;20209;-69
2023/01/22 06:53:50;;;;;;;16.58;14.88;;;2.90;97.20;;;;;;1707615;28;20277;-68
2023/01/22 06:54:41;;;;;;;15.13;13.63;;;2.90;97.20;;;;;;1707694;28;20206;-69
2023/01/22 06:55:32;;;;;;;16.10;14.50;;;3.00;97.20;;;;;;1708022;28;20210;-69
2023/01/22 06:56:23;;;;;;;14.88;13.43;;;3.00;97.20;;;;;;1707584;29;20203;-69
2023/01/22 06:57:15;;;;;;;16.20;14.53;;;3.00;97.20;;;;;;1707350;29;20199;-69
2023/01/22 06:58:05;;;;;;;15.60;14.00;;;3.00;97.20;;;;;;1707334;29;20260;-69
2023/01/22 06:58:57;;;;;;;14.60;13.10;;;3.00;97.20;;;;;;1707530;29;20207;-68
2023/01/22 06:59:48;;;;;;;14.85;13.35;;;3.00;97.20;;;;;;1707797;29;20206;-69
2023/01/22 07:00:40;;;;;;;14.80;13.27;;;3.00;97.20;;;;;;1707814;28;20220;-69
2023/01/22 07:01:30;;;;;;;15.60;14.00;;;2.90;97.20;;;;;;1707860;29;20210;-68
2023/01/22 07:02:23;;;;;;;15.40;13.90;;;2.90;97.20;;;;;;1707747;29;20206;-69
2023/01/22 07:03:14;;;;;;;14.73;12.95;;;2.90;97.20;;;;;;1707400;28;20203;-69
2023/01/22 07:04:06;;;;;;;14.90;13.40;;;2.90;97.20;;;;;;1707485;28;20209;-69
2023/01/22 07:04:57;;;;;;;15.30;13.70;;;2.90;97.20;;;;;;1707630;28;20668;-69
2023/01/22 07:05:56;;;;;;;15.60;14.00;;;2.90;97.20;;;;;;1707905;28;20685;-68
2023/01/22 07:06:47;;;;;;;15.48;13.88;;;2.90;97.20;;;;;;1707838;28;20949;-68
2023/01/22 07:07:39;;;;;;;14.47;12.97;;;2.90;97.20;;;;;;1707628;28;20673;-68
2023/01/22 07:08:31;;;;;;;16.55;14.88;;;2.90;97.20;;;;;;1707822;28;20205;-69
2023/01/22 07:09:23;;;;;;;16.67;13.85;;;2.90;97.20;;;;;;1707289;28;20214;-68
2023/01/22 07:10:14;;;;;;;16.50;14.20;;;2.90;97.20;;;;;;1707381;28;20215;-68
2023/01/22 07:11:06;;;;;;;16.05;14.30;;;2.90;97.20;;;;;;1707431;28;20202;-68
2023/01/22 07:11:59;;;;;;;16.00;13.98;;;2.90;97.20;;;;;;1707817;28;20227;-68
2023/01/22 07:12:55;;;;;;;14.77;13.27;;;3.00;97.20;;;;;;1707851;28;20657;-69
2023/01/22 07:13:46;;;;;;;17.48;15.02;;;2.90;97.20;;;;;;1707880;28;20215;-68
2023/01/22 07:14:38;;;;;;;15.40;13.90;;;3.00;97.20;;;;;;1707888;28;20282;-68
2023/01/22 07:15:28;;;;;;;15.68;14.07;;;2.90;97.20;;;;;;1707725;28;20210;-69
2023/01/22 07:16:20;;;;;;;15.77;14.17;;;2.90;97.20;;;;;;1709880;28;20205;-68
2023/01/22 07:17:11;;;;;;;15.75;14.15;;;2.90;97.20;;;;;;1714162;28;20210;-68
2023/01/22 07:18:04;;;;;;;15.63;14.03;;;3.00;97.20;;;;;;1714301;28;20212;-69
2023/01/22 07:18:54;;;;;;;15.77;14.18;;;2.90;97.20;;;;;;1714238;28;20213;-68
2023/01/22 07:19:46;;;;;;;14.60;13.10;;;3.00;97.20;;;;;;1714195;28;20208;-69
2023/01/22 07:20:37;;;;;;;15.05;13.57;;;3.00;97.20;;;;;;1714225;28;20229;-68
2023/01/22 07:21:29;;;;;;;16.70;15.00;;;2.90;97.20;;;;;;1714415;28;20202;-69
2023/01/22 07:22:19;;;;;;;14.90;13.50;;;3.00;97.20;;;;;;1714071;28;20233;-68
2023/01/22 07:23:11;;;;;;;15.70;14.20;;;3.00;97.20;;;;;;1714081;28;20201;-68
2023/01/22 07:24:02;;;;;;;15.85;14.15;;;3.00;97.20;;;;;;1707843;28;20226;-68
2023/01/22 07:24:54;;;;;;;15.57;14.00;;;3.00;97.20;;;;;;1707787;29;20207;-69
2023/01/22 07:25:45;;;;;;;16.13;14.40;;;3.00;97.20;;;;;;1707688;29;20210;-69
2023/01/22 07:26:37;;;;;;;16.38;14.73;;;2.90;97.20;;;;;;1707675;28;20233;-69
2023/01/22 07:27:29;;;;;;;15.23;13.63;;;3.00;97.20;;;;;;1707706;28;20731;-69
2023/01/22 07:28:20;;;;;;;15.02;13.43;;;3.00;97.20;;;;;;1707496;28;20194;-69
2023/01/22 07:29:12;;;;;;;16.13;14.07;;;3.00;97.20;;;;;;1707067;28;20214;-69
2023/01/22 07:30:04;;;;;;;15.85;14.25;;;3.00;97.20;;;;;;1707304;28;20207;-68
2023/01/22 07:30:55;;;;;;;15.40;13.90;;;3.00;97.20;;;;;;1707279;28;20246;-69
2023/01/22 07:31:47;;;;;;;14.38;12.98;;;3.00;97.20;;;;;;1707493;28;20203;-69
2023/01/22 07:32:38;;;;;;;15.25;13.65;;;3.00;97.20;;;;;;1707620;28;20213;-68
2023/01/22 07:33:31;;;;;;;17.73;15.43;;;3.00;97.20;;;;;;1707746;28;20209;-67
2023/01/22 07:34:22;;;;;;;15.32;13.82;;;3.00;97.20;;;;;;1707574;28;20198;-69
2023/01/22 07:35:13;;;;;;;15.63;14.00;;;3.00;97.20;;;;;;1707327;28;20202;-67
2023/01/22 07:36:05;;;;;;;15.70;14.02;;;3.00;97.20;;;;;;1707260;28;20695;-69
2023/01/22 07:36:57;;;;;;;15.95;14.20;;;3.10;97.20;;;;;;1707301;28;20250;-68
2023/01/22 07:37:50;;;;;;;16.20;14.60;;;3.00;97.20;;;;;;1707669;28;20210;-69
2023/01/22 07:38:42;;;;;;;15.88;14.05;;;3.00;97.20;;;;;;1707406;28;20223;-68
2023/01/22 07:39:33;;;;;;;15.30;13.60;;;3.00;97.20;;;;;;1707070;28;20210;-68
2023/01/22 07:40:25;;;;;;;15.07;13.47;;;3.10;97.20;;;;;;1707501;28;20209;-69
2023/01/22 07:41:15;;;;;;;15.70;14.13;;;3.00;97.20;;;;;;1707435;28;20213;-68
2023/01/22 07:42:07;;;;;;;15.77;14.00;;;3.10;97.20;;;;;;1707213;28;20205;-68
2023/01/22 07:42:58;;;;;;;15.88;14.27;;;3.10;97.20;;;;;;1711731;28;20233;-68
2023/01/22 07:43:51;;;;;;;15.90;14.30;;;3.10;97.20;;;;;;1714140;28;20209;-67
2023/01/22 07:44:42;;;;;;;15.80;14.10;;;3.10;97.20;;;;;;1714209;28;20244;-68
2023/01/22 07:45:34;;;;;;;16.60;14.87;;;3.10;97.20;;;;;;1714271;28;20209;-68
2023/01/22 07:46:25;;;;;;;15.68;14.02;;;3.10;97.20;;;;;;1714132;28;20213;-67
2023/01/22 07:47:16;;;;;;;15.00;13.40;;;3.10;97.20;;;;;;1714244;28;20292;-68
2023/01/22 07:48:09;;;;;;;14.43;13.02;;;3.10;97.20;;;;;;1713709;28;20449;-66
2023/01/22 07:49:02;;;;;;;15.40;13.80;;;3.10;97.20;;;;;;1713216;28;20209;-67
2023/01/22 07:49:53;;;;;;;15.85;14.25;;;3.10;97.20;;;;;;1713693;28;20209;-67
2023/01/22 07:50:44;;;;;;;15.87;14.07;;;3.10;97.20;;;;;;1714053;28;20280;-70
2023/01/22 07:51:35;;;;;;;15.40;13.80;;;3.10;97.20;;;;;;1714198;28;20592;-68
2023/01/22 07:52:27;;;;;;;15.60;13.70;;;3.10;97.20;;;;;;1714283;28;20566;-69
2023/01/22 07:53:18;;;;;;;17.05;15.35;;;3.10;97.20;;;;;;1714209;28;20205;-68
2023/01/22 07:54:09;;;;;;;16.73;15.00;;;3.10;97.20;;;;;;1713973;28;20202;-68
2023/01/22 07:55:00;;;;;;;16.80;15.00;;;3.10;97.20;;;;;;1713668;28;20453;-68
2023/01/22 07:55:52;;;;;;;16.60;14.10;;;3.10;97.20;;;;;;1713384;28;20202;-68
2023/01/22 07:56:42;;;;;;;17.33;15.52;;;3.10;97.20;;;;;;1707216;29;20210;-68
2023/01/22 07:57:34;;;;;;;17.47;15.30;;;3.10;97.20;;;;;;1707588;28;20213;-68
2023/01/22 07:58:25;;;;;;;16.48;14.52;;;3.10;97.20;;;;;;1707332;28;20206;-68
2023/01/22 07:59:17;;;;;;;18.40;14.77;;;3.10;97.20;;;;;;1707220;28;20224;-68
2023/01/22 08:00:09;;;;;;;17.25;15.45;;;3.20;97.20;;;;;;1707497;28;20206;-68
2023/01/22 08:01:05;;;;;;;18.13;15.93;;;3.20;97.20;;;;;;1706928;28;20587;-68
2023/01/22 08:01:56;;;;;;;17.85;15.95;;;3.20;97.20;;;;;;1707252;28;20210;-69
2023/01/22 08:02:49;;;;;;;17.47;14.67;;;3.20;97.20;;;;;;1707365;28;20202;-69
2023/01/22 08:03:39;;;;;;;17.67;15.82;;;3.20;97.20;;;;;;1707452;28;20755;-67
2023/01/22 08:04:32;;;;;;;19.37;17.27;;;3.20;97.20;;;;;;1707613;28;20578;-68
2023/01/22 08:05:23;;;;;;;17.17;15.40;;;3.20;97.20;;;;;;1707486;28;20666;-69
2023/01/22 08:06:20;;;;;;;17.03;15.37;;;3.20;97.20;;;;;;1707479;28;20594;-69
2023/01/22 08:07:15;;;;;;;15.52;14.02;;;3.20;97.20;;;;;;1707195;28;20446;-68
2023/01/22 08:08:13;;;;;;;16.50;14.80;;;3.20;97.20;;;;;;1707148;28;20202;-68
2023/01/22 08:09:04;;;;;;;15.27;13.85;;;3.30;97.20;;;;;;1706927;28;20210;-69
2023/01/22 08:09:56;;;;;;;16.73;15.13;;;3.30;97.20;;;;;;1707444;28;20649;-68
2023/01/22 08:10:47;;;;;;;15.20;13.70;;;3.30;97.20;;;;;;1707334;28;20258;-68
2023/01/22 08:11:38;;;;;;;15.03;13.53;;;3.30;97.20;;;;;;1707441;28;20213;-67
2023/01/22 08:12:29;;;;;;;15.07;13.57;;;3.30;97.20;;;;;;1707127;28;20478;-68
2023/01/22 08:13:21;;;;;;;14.07;12.67;;;3.30;97.20;;;;;;1707260;28;20199;-68
2023/01/22 08:14:11;;;;;;;14.85;13.32;;;3.30;97.20;;;;;;1707080;28;20237;-68
2023/01/22 08:15:04;;;;;;;15.13;13.60;;;3.30;97.20;;;;;;1707108;28;20198;-68
2023/01/22 08:15:54;;;;;;;14.73;13.27;;;3.30;97.20;;;;;;1707146;28;20233;-68
2023/01/22 08:16:47;;;;;;;15.20;13.70;;;3.30;97.20;;;;;;1706626;28;20191;-68
2023/01/22 08:17:38;;;;;;;16.13;14.52;;;3.30;97.20;;;;;;1706996;28;20217;-68
2023/01/22 08:18:30;;;;;;;16.27;14.68;;;3.30;97.20;;;;;;1706921;28;20199;-68
2023/01/22 08:19:20;;;;;;;15.20;13.70;;;3.30;97.20;;;;;;1706722;28;20210;-68
2023/01/22 08:20:13;;;;;;;14.60;13.10;;;3.30;97.20;;;;;;1706686;28;20198;-68
2023/01/22 08:21:04;;;;;;;15.88;14.27;;;3.30;97.20;;;;;;1706629;28;20595;-68
2023/01/22 08:21:56;;;;;;;13.95;12.55;;;3.30;97.20;;;;;;1706769;28;20297;-68
2023/01/22 08:22:47;;;;;;;15.00;13.60;;;3.30;97.20;;;;;;1707008;28;20210;-68
2023/01/22 08:23:39;;;;;;;14.17;12.77;;;3.40;97.20;;;;;;1706987;28;20202;-67
2023/01/22 08:24:30;;;;;;;15.00;13.55;;;3.40;97.20;;;;;;1707154;28;20450;-68
2023/01/22 08:25:22;;;;;;;15.18;13.68;;;3.40;97.20;;;;;;1707059;28;20207;-68
2023/01/22 08:26:13;;;;;;;14.98;13.23;;;3.40;97.20;;;;;;1706762;28;20230;-68
2023/01/22 08:27:04;;;;;;;14.20;12.70;;;3.40;97.20;;;;;;1706658;28;20653;-68
2023/01/22 08:27:55;;;;;;;16.02;13.27;;;3.40;97.20;;;;;;1706479;28;20227;-68
2023/01/22 08:28:47;;;;;;;15.50;13.90;;;3.40;97.20;;;;;;1706749;29;20685;-68
2023/01/22 08:29:37;;;;;;;14.48;12.98;;;3.40;97.20;;;;;;1706692;28;20209;-68
2023/01/22 08:30:29;;;;;;;15.63;12.80;;;3.40;97.20;;;;;;1706745;28;20205;-68
2023/01/22 08:31:20;;;;;;;14.77;13.27;;;3.40;97.20;;;;;;1707340;28;20211;-68
2023/01/22 08:32:11;;;;;;;17.03;13.30;;;3.50;97.20;;;;;;1707474;28;20285;-68
2023/01/22 08:33:02;;;;;;;15.00;13.45;;;3.50;97.20;;;;;;1707064;28;20217;-67
2023/01/22 08:33:54;;;;;;;15.27;13.53;;;3.50;97.20;;;;;;1706996;28;20206;-69
2023/01/22 08:34:45;;;;;;;16.15;14.45;;;3.50;97.20;;;;;;1707055;28;20469;-68
2023/01/22 08:35:39;;;;;;;16.90;15.20;;;3.50;97.20;;;;;;1707326;28;20206;-68
2023/01/22 08:36:30;;;;;;;16.08;14.35;;;3.50;97.20;;;;;;1707105;28;20574;-68
2023/01/22 08:37:22;;;;;;;14.63;13.13;;;3.50;97.20;;;;;;1707395;28;20325;-68
2023/01/22 08:38:13;;;;;;;15.90;14.25;;;3.50;97.20;;;;;;1707137;29;20453;-68
2023/01/22 08:39:05;;;;;;;14.47;13.07;;;3.50;97.20;;;;;;1706520;29;20226;-68
2023/01/22 08:39:56;;;;;;;15.40;13.85;;;3.60;97.20;;;;;;1707020;29;20457;-69
2023/01/22 08:40:49;;;;;;;14.07;12.63;;;3.60;97.20;;;;;;1706775;28;20313;-66
2023/01/22 08:41:40;;;;;;;14.68;13.18;;;3.60;97.20;;;;;;1705250;28;20207;-67
2023/01/22 08:42:32;;;;;;;15.40;13.80;;;3.60;97.20;;;;;;1710363;28;20203;-67
2023/01/22 08:43:23;;;;;;;15.15;13.65;;;3.60;97.20;;;;;;1709808;28;20469;-66
2023/01/22 08:44:14;;;;;;;16.30;14.77;;;3.60;97.20;;;;;;1707915;28;20200;-68
2023/01/22 08:45:08;;;;;;;16.35;14.60;;;3.60;97.20;;;;;;1710452;28;20253;-69
2023/01/22 08:45:59;;;;;;;16.17;14.55;;;3.60;97.20;;;;;;1711228;28;20213;-69
2023/01/22 08:46:51;;;;;;;16.17;14.52;;;3.60;97.20;;;;;;1707076;28;20206;-69
2023/01/22 08:47:42;;;;;;;15.50;13.90;;;3.60;97.20;;;;;;1706984;28;20205;-66
2023/01/22 08:48:33;;;;;;;16.63;14.93;;;3.60;97.20;;;;;;1707374;28;20198;-67
2023/01/22 08:49:25;;;;;;;14.87;13.27;;;3.70;97.20;;;;;;1707086;28;20213;-67
2023/01/22 08:50:16;;;;;;;15.00;13.40;;;3.70;97.20;;;;;;1707106;28;20634;-67
2023/01/22 08:51:09;;;;;;;15.70;13.75;;;3.70;97.20;;;;;;1707395;28;20755;-67
2023/01/22 08:52:00;;;;;;;16.33;14.70;;;3.70;97.20;;;;;;1707106;28;20206;-68
2023/01/22 08:52:52;;;;;;;16.10;14.50;;;3.70;97.20;;;;;;1707117;28;20690;-69
2023/01/22 08:53:42;;;;;;;15.25;13.75;;;3.70;97.20;;;;;;1707003;28;20210;-68
2023/01/22 08:54:34;;;;;;;15.27;13.63;;;3.70;97.20;;;;;;1707366;28;20199;-69
2023/01/22 08:55:26;;;;;;;16.08;14.38;;;3.70;97.20;;;;;;1707321;28;20209;-69
2023/01/22 08:56:18;;;;;;;15.05;13.50;;;3.70;97.20;;;;;;1707289;28;20233;-68
2023/01/22 08:57:08;;;;;;;15.63;14.02;;;3.70;97.20;;;;;;1707351;28;20215;-68
2023/01/22 08:58:00;;;;;;;15.50;13.13;;;3.70;97.20;;;;;;1707300;28;20213;-69
2023/01/22 08:58:51;;;;;;;14.57;13.10;;;3.70;97.20;;;;;;1706897;28;20230;-69
2023/01/22 08:59:43;;;;;;;16.23;14.30;;;3.70;97.20;;;;;;1706691;28;20195;-69
2023/01/22 09:00:33;;;;;;;15.30;13.75;;;3.80;97.20;;;;;;1706776;28;20508;-69
2023/01/22 09:01:26;;;;;;;16.43;14.67;;;3.80;97.20;;;;;;1708519;28;20206;-69
2023/01/22 09:02:16;;;;;;;15.32;13.77;;;3.80;97.20;;;;;;1708639;29;20210;-69
2023/01/22 09:03:08;;;;;;;15.10;13.57;;;3.80;97.20;;;;;;1708612;29;20208;-67
2023/01/22 09:03:59;;;;;;;16.00;14.02;;;3.80;97.20;;;;;;1708672;29;20202;-68
2023/01/22 09:04:50;;;;;;;16.70;15.00;;;3.80;97.20;;;;;;1708358;29;20213;-67
2023/01/22 09:05:41;;;;;;;16.30;14.60;;;3.80;97.20;;;;;;1708259;29;20210;-67
2023/01/22 09:06:35;;;;;;;15.55;14.05;;;3.90;97.20;;;;;;1708268;29;20199;-67
2023/01/22 09:07:26;;;;;;;18.13;15.07;;;3.90;97.20;;;;;;1708565;29;20586;-67
2023/01/22 09:08:17;;;;;;;16.80;15.07;;;3.90;97.20;;;;;;1708461;29;20224;-68
2023/01/22 09:09:08;;;;;;;17.30;15.48;;;3.90;97.20;;;;;;1708030;29;20198;-67
2023/01/22 09:10:00;;;;;;;17.53;15.67;;;3.90;97.20;;;;;;1708629;28;20203;-67
2023/01/22 09:10:50;;;;;;;18.75;16.75;;;3.90;97.20;;;;;;1708119;28;20222;-67
2023/01/22 09:11:43;;;;;;;17.67;15.87;;;3.90;97.20;;;;;;1708178;28;20195;-67
2023/01/22 09:12:34;;;;;;;17.85;15.60;;;3.90;97.20;;;;;;1708009;28;20213;-67
2023/01/22 09:13:26;;;;;;;17.70;15.90;;;3.90;97.20;;;;;;1708353;29;20231;-67
2023/01/22 09:14:18;;;;;;;17.02;14.57;;;4.00;97.20;;;;;;1708579;28;20207;-67
2023/01/22 09:15:09;;;;;;;18.15;16.10;;;4.00;97.20;;;;;;1708550;28;20272;-68
2023/01/22 09:16:04;;;;;;;17.40;15.32;;;4.00;97.20;;;;;;1708599;28;20622;-68
2023/01/22 09:16:55;;;;;;;17.02;15.27;;;4.00;97.20;;;;;;1708520;28;20210;-68
2023/01/22 09:17:47;;;;;;;17.07;14.93;;;4.00;97.20;;;;;;1708230;28;20203;-68
2023/01/22 09:18:38;;;;;;;16.65;14.63;;;4.00;97.20;;;;;;1708187;29;20595;-68
2023/01/22 09:19:30;;;;;;;17.23;15.52;;;4.00;97.20;;;;;;1707894;29;20285;-68
2023/01/22 09:20:20;;;;;;;16.70;14.90;;;4.00;97.20;;;;;;1708168;28;20206;-68
2023/01/22 09:21:12;;;;;;;16.57;14.87;;;4.10;97.20;;;;;;1708305;28;20194;-71
2023/01/22 09:22:06;;;;;;;17.08;15.38;;;4.10;97.20;;;;;;1707785;28;20662;-70
2023/01/22 09:22:57;;;;;;;17.38;15.57;;;4.10;97.20;;;;;;1707651;28;20268;-68
2023/01/22 09:23:48;;;;;;;16.85;15.25;;;4.10;97.20;;;;;;1708562;29;20203;-68
2023/01/22 09:24:40;;;;;;;17.10;15.30;;;4.10;97.20;;;;;;1708505;29;20206;-68
2023/01/22 09:25:30;;;;;;;17.30;15.50;;;4.10;97.20;;;;;;1708465;29;20237;-68
2023/01/22 09:26:22;;;;;;;16.77;15.17;;;4.10;97.20;;;;;;1708367;29;20207;-68
2023/01/22 09:27:13;;;;;;;17.08;15.27;;;4.10;97.20;;;;;;1708394;29;20582;-68
2023/01/22 09:28:07;;;;;;;17.00;15.07;;;4.10;97.20;;;;;;1708420;28;20566;-68
2023/01/22 09:28:59;;;;;;;18.27;16.38;;;4.20;97.20;;;;;;1708164;28;20207;-68
2023/01/22 09:29:51;;;;;;;16.92;15.15;;;4.20;97.20;;;;;;1708531;29;20287;-68
2023/01/22 09:30:43;;;;;;;16.48;14.88;;;4.20;97.20;;;;;;1708208;29;20258;-68
2023/01/22 09:31:35;;;;;;;17.40;15.60;;;4.20;97.20;;;;;;1708501;29;20209;-68
2023/01/22 09:32:26;;;;;;;16.45;14.85;;;4.20;97.20;;;;;;1708456;28;20203;-69
2023/01/22 09:33:18;;;;;;;15.70;14.07;;;4.20;97.20;;;;;;1708437;29;20205;-68
2023/01/22 09:34:08;;;;;;;17.83;14.95;;;4.30;97.20;;;;;;1708431;29;20242;-68
2023/01/22 09:35:00;;;;;;;17.10;15.30;;;4.30;97.20;;;;;;1708391;29;20669;-68
2023/01/22 09:35:51;;;;;;;17.17;15.23;;;4.30;97.20;;;;;;1708391;29;20202;-68
2023/01/22 09:36:44;;;;;;;17.03;15.23;;;4.30;97.20;;;;;;1708414;28;20199;-68
2023/01/22 09:37:36;;;;;;;16.90;15.15;;;4.40;97.20;;;;;;1708471;29;20210;-68
2023/01/22 09:38:28;;;;;;;17.25;14.90;;;4.40;97.20;;;;;;1708004;29;20679;-67
2023/01/22 09:39:19;;;;;;;17.35;15.45;;;4.40;97.20;;;;;;1708070;29;20230;-68
2023/01/22 09:40:20;;;;;;;17.67;15.77;;;4.40;97.20;;;;;;1708165;29;20198;-68
2023/01/22 09:41:19;;;;;;;17.92;16.02;;;4.50;97.20;;;;;;1708366;29;20211;-68
2023/01/22 09:42:16;;;;;;;17.88;16.00;;;4.50;97.20;;;;;;1708347;29;20672;-69
2023/01/22 09:43:21;;;;;;;17.17;15.38;;;4.50;97.20;;;;;;1708392;29;20224;-68
2023/01/22 09:44:16;;;;;;;16.88;15.18;;;4.60;97.20;;;;;;1708355;29;20262;-68
2023/01/22 09:45:11;;;;;;;16.90;15.10;;;4.60;97.20;;;;;;1708491;29;20199;-68
2023/01/22 09:46:08;;;;;;;17.17;14.52;;;4.70;97.20;;;;;;1708355;29;20210;-68
2023/01/22 09:47:04;;;;;;;16.52;14.65;;;4.70;97.20;;;;;;1708341;29;20210;-68
2023/01/22 09:47:59;;;;;;;17.77;16.08;;;4.70;97.20;;;;;;1708413;29;20230;-68
2023/01/22 09:48:56;;;;;;;16.20;14.60;;;4.70;97.20;;;;;;1708259;29;20206;-68
2023/01/22 09:49:53;;;;;;;17.98;15.77;;;4.80;97.20;;;;;;1708397;29;20222;-68
2023/01/22 09:50:45;;;;;;;18.58;15.52;;;4.80;97.20;;;;;;1708165;29;20219;-68
2023/01/22 09:51:36;;;;;;;17.00;15.30;;;4.90;97.20;;;;;;1708319;29;20221;-68
2023/01/22 09:52:32;;;;;;;16.73;14.65;;;4.90;97.20;;;;;;1708303;29;20238;-68
2023/01/22 09:53:24;;;;;;;16.25;14.55;;;5.00;97.20;;;;;;1708390;29;20206;-68
2023/01/22 09:54:16;;;;;;;17.92;16.02;;;5.10;97.20;;;;;;1708008;29;20229;-68
2023/01/22 09:55:11;;;;;;;17.67;15.88;;;5.10;97.20;;;;;;1708271;28;20244;-68
2023/01/22 09:56:06;;;;;;;18.27;16.38;;;5.20;97.20;;;;;;1708277;28;20226;-68
2023/01/22 09:57:00;;;;;;;19.70;17.27;;;5.30;97.20;;;;;;1708393;28;20257;-68
2023/01/22 09:57:55;;;;;;;20.10;17.95;;;5.40;97.20;;;;;;1708360;28;20202;-68
2023/01/22 09:58:48;;;;;;;16.50;14.80;;;5.40;97.20;;;;;;1708250;28;20206;-68
2023/01/22 09:59:45;;;;;;;16.75;14.95;;;5.50;97.20;;;;;;1707878;28;20230;-68
2023/01/22 10:00:38;;;;;;;16.63;14.95;;;5.60;97.20;;;;;;1708217;28;20241;-69
2023/01/22 10:01:30;;;;;;;16.00;14.30;;;5.60;97.20;;;;;;1708257;28;20214;-68
2023/01/22 10:02:27;;;;;;;14.63;13.15;;;5.70;97.20;;;;;;1708255;28;20207;-68
2023/01/22 10:03:24;;;;;;;15.88;13.75;;;5.70;97.20;;;;;;1708313;28;20213;-68
2023/01/22 10:04:26;;;;;;;14.35;12.90;;;5.80;97.20;;;;;;1708333;28;20207;-68
2023/01/22 10:05:31;;;;;;;15.48;13.88;;;5.80;97.20;;;;;;1708360;28;20582;-68
2023/01/22 10:06:24;;;;;;;14.43;12.93;;;5.80;97.20;;;;;;1708255;28;20210;-68
2023/01/22 10:07:20;;;;;;;14.98;13.43;;;5.80;97.20;;;;;;1708385;28;20653;-68
2023/01/22 10:08:14;;;;;;;14.15;12.43;;;5.80;97.20;;;;;;1708222;28;20206;-69
2023/01/22 10:09:15;;;;;;;14.45;12.95;;;5.80;97.20;;;;;;1707947;28;20249;-68
2023/01/22 10:10:20;;;;;;;15.18;13.07;;;5.80;97.20;;;;;;1708018;28;20266;-68
2023/01/22 10:11:11;;;;;;;14.30;12.85;;;5.80;97.20;;;;;;1708132;28;20212;-68
2023/01/22 10:12:11;;;;;;;13.27;11.93;;;5.80;97.20;;;;;;1707330;28;20205;-68
2023/01/22 10:13:14;;;;;;;14.18;12.52;;;5.80;97.20;;;;;;1707965;28;20457;-68
2023/01/22 10:14:08;;;;;;;13.50;12.20;;;5.70;97.20;;;;;;1708232;28;20568;-68
2023/01/22 10:14:58;;;;;;;13.63;12.20;;;5.70;97.20;;;;;;1708231;28;20206;-68
2023/01/22 10:15:52;;;;;;;14.10;12.70;;;5.70;97.20;;;;;;1708262;28;20206;-68
2023/01/22 10:16:44;;;;;;;13.48;12.10;;;5.80;97.20;;;;;;1708259;28;20230;-68
2023/01/22 10:17:38;;;;;;;13.23;11.85;;;5.80;97.20;;;;;;1708189;28;20233;-67
2023/01/22 10:18:33;;;;;;;12.52;11.23;;;5.80;97.20;;;;;;1708135;28;20214;-67
2023/01/22 10:19:29;;;;;;;14.52;12.25;;;5.80;97.20;;;;;;1707792;28;20257;-68
2023/01/22 10:20:23;;;;;;;12.93;11.55;;;5.70;97.20;;;;;;1708053;28;20206;-68
2023/01/22 10:21:23;;;;;;;13.10;11.27;;;5.80;97.20;;;;;;1708145;28;20202;-68
2023/01/22 10:22:20;;;;;;;13.10;11.80;;;5.70;97.20;;;;;;1708233;28;20307;-69
2023/01/22 10:23:17;;;;;;;12.07;10.88;;;5.70;97.20;;;;;;1708195;28;20289;-68
2023/01/22 10:24:11;;;;;;;12.55;10.98;;;5.70;97.20;;;;;;1708165;28;20241;-68
2023/01/22 10:25:02;;;;;;;12.75;11.50;;;5.70;97.20;;;;;;1708104;28;20210;-68
2023/01/22 10:25:59;;;;;;;12.30;11.10;;;5.70;97.20;;;;;;1707875;28;20195;-68
2023/01/22 10:26:53;;;;;;;12.38;11.13;;;5.60;97.20;;;;;;1701461;29;20207;-69
2023/01/22 10:27:46;;;;;;;12.45;11.15;;;5.60;97.20;;;;;;1701495;29;20625;-68
2023/01/22 10:28:42;;;;;;;15.30;12.73;;;5.60;97.20;;;;;;1701474;29;20208;-69